Mid-Ohio Valley Regional (PKB)

 

Airport Diagram
Current Weather/Forecast (MVFR Conditions)
METAR KPKB 071253Z 00000KT 6SM BR BKN017 BKN023 OVC041 09/08 A2992 RMK AO2 RAB10E33 SLP131 P0001 T00890078
TAF KPKB 071258Z 0713/0812 33006KT P6SM BKN015 OVC035 FM071500 32006KT P6SM OVC020 FM071700 32008G15KT P6SM BKN035 FM072000 30009G17KT P6SM SCT050 FM080200 VRB03KT P6SM -SHRA BKN070 FM080600 27005KT P6SM SCT035

Airport Information

All Charts
General
Chart Name View
AIRPORT DIAGRAM
TAKEOFF MINIMUMS
ALTERNATE MINIMUMS

Approaches
Chart Name Download
ILS OR LOC RWY 03
RNAV (GPS) RWY 03
RNAV (GPS) RWY 10
RNAV (GPS) RWY 21
RNAV (GPS) RWY 28
VOR RWY 21


Airport Statistics
Departures Arrivals Local
All Collected Stats since June 2016: 43 30 1
2021 Stats: 9 12 0
May Stats: 1 1 0

Inbound Traffic (Arrivals) - 0

No inbound traffic.


Outbound Traffic (Departures) - 0

No outbound traffic.


Local Traffic (Pattern) - 0

No local traffic.